sensor_id;sensor_type;location;lat;lon;timestamp;P1;durP1;ratioP1;P2;durP2;ratioP2
16063;SDS011;8136;53.172;8.256;2024-03-17T00:13:01;12.27;;;3.87;;
16063;SDS011;8136;53.172;8.256;2024-03-17T00:15:45;10.93;;;4.27;;
16063;SDS011;8136;53.172;8.256;2024-03-17T00:18:31;10.80;;;3.67;;
16063;SDS011;8136;53.172;8.256;2024-03-17T00:21:18;12.13;;;3.70;;
16063;SDS011;8136;53.172;8.256;2024-03-17T00:24:39;7.60;;;3.50;;
16063;SDS011;8136;53.172;8.256;2024-03-17T00:27:27;12.00;;;3.10;;
16063;SDS011;8136;53.172;8.256;2024-03-17T00:30:46;8.53;;;3.00;;
16063;SDS011;8136;53.172;8.256;2024-03-17T00:33:16;8.97;;;3.17;;
16063;SDS011;8136;53.172;8.256;2024-03-17T00:35:44;9.80;;;3.87;;
16063;SDS011;8136;53.172;8.256;2024-03-17T00:38:30;8.20;;;3.40;;
16063;SDS011;8136;53.172;8.256;2024-03-17T00:42:10;9.03;;;3.27;;
16063;SDS011;8136;53.172;8.256;2024-03-17T00:45:18;9.67;;;3.53;;
16063;SDS011;8136;53.172;8.256;2024-03-17T16:29:46;3.33;;;1.67;;
16063;SDS011;8136;53.172;8.256;2024-03-17T16:32:13;3.23;;;1.93;;
16063;SDS011;8136;53.172;8.256;2024-03-17T16:34:42;6.10;;;1.60;;
16063;SDS011;8136;53.172;8.256;2024-03-17T16:37:09;6.20;;;1.73;;
16063;SDS011;8136;53.172;8.256;2024-03-17T16:39:36;5.07;;;1.57;;
16063;SDS011;8136;53.172;8.256;2024-03-17T16:44:43;3.63;;;1.53;;
16063;SDS011;8136;53.172;8.256;2024-03-17T16:47:26;4.37;;;1.67;;
16063;SDS011;8136;53.172;8.256;2024-03-17T16:49:55;3.73;;;1.60;;
16063;SDS011;8136;53.172;8.256;2024-03-17T16:52:24;8.10;;;2.40;;
16063;SDS011;8136;53.172;8.256;2024-03-17T16:54:53;4.00;;;1.77;;
16063;SDS011;8136;53.172;8.256;2024-03-17T16:57:20;5.63;;;1.83;;
16063;SDS011;8136;53.172;8.256;2024-03-17T16:59:47;3.30;;;1.43;;
16063;SDS011;8136;53.172;8.256;2024-03-17T17:02:16;4.53;;;1.30;;
16063;SDS011;8136;53.172;8.256;2024-03-17T17:04:43;5.53;;;1.73;;
16063;SDS011;8136;53.172;8.256;2024-03-17T17:07:11;5.63;;;1.90;;
16063;SDS011;8136;53.172;8.256;2024-03-17T17:09:38;4.97;;;2.03;;
16063;SDS011;8136;53.172;8.256;2024-03-17T17:12:08;4.27;;;1.70;;
16063;SDS011;8136;53.172;8.256;2024-03-17T17:14:38;9.53;;;3.20;;
16063;SDS011;8136;53.172;8.256;2024-03-17T17:17:07;4.37;;;1.83;;
16063;SDS011;8136;53.172;8.256;2024-03-17T17:19:36;6.93;;;2.10;;
16063;SDS011;8136;53.172;8.256;2024-03-17T17:22:05;3.43;;;1.50;;
16063;SDS011;8136;53.172;8.256;2024-03-17T17:24:32;3.27;;;1.60;;
16063;SDS011;8136;53.172;8.256;2024-03-17T17:26:59;31.77;;;13.60;;
16063;SDS011;8136;53.172;8.256;2024-03-17T17:29:34;32.73;;;13.63;;
16063;SDS011;8136;53.172;8.256;2024-03-17T17:32:02;65.80;;;29.27;;
16063;SDS011;8136;53.172;8.256;2024-03-17T17:34:31;19.43;;;9.33;;
16063;SDS011;8136;53.172;8.256;2024-03-17T17:37:00;12.67;;;6.27;;
16063;SDS011;8136;53.172;8.256;2024-03-17T17:39:27;14.70;;;7.73;;
16063;SDS011;8136;53.172;8.256;2024-03-17T17:41:54;6.87;;;4.30;;
16063;SDS011;8136;53.172;8.256;2024-03-17T17:44:22;9.10;;;3.27;;
16063;SDS011;8136;53.172;8.256;2024-03-17T17:46:49;7.60;;;4.00;;
16063;SDS011;8136;53.172;8.256;2024-03-17T17:49:16;5.73;;;3.07;;
16063;SDS011;8136;53.172;8.256;2024-03-17T17:51:43;10.20;;;4.70;;
16063;SDS011;8136;53.172;8.256;2024-03-17T17:54:12;11.67;;;6.60;;
16063;SDS011;8136;53.172;8.256;2024-03-17T17:56:39;21.37;;;10.30;;
16063;SDS011;8136;53.172;8.256;2024-03-17T17:59:06;22.90;;;11.00;;
16063;SDS011;8136;53.172;8.256;2024-03-17T18:01:35;11.70;;;5.00;;
16063;SDS011;8136;53.172;8.256;2024-03-17T18:04:02;11.20;;;6.47;;
16063;SDS011;8136;53.172;8.256;2024-03-17T18:06:31;13.13;;;6.40;;
16063;SDS011;8136;53.172;8.256;2024-03-17T18:08:58;16.80;;;9.40;;
16063;SDS011;8136;53.172;8.256;2024-03-17T18:11:27;15.07;;;8.50;;
16063;SDS011;8136;53.172;8.256;2024-03-17T18:13:54;19.77;;;12.57;;
16063;SDS011;8136;53.172;8.256;2024-03-17T18:16:21;10.77;;;6.60;;
16063;SDS011;8136;53.172;8.256;2024-03-17T18:18:48;15.67;;;8.10;;
16063;SDS011;8136;53.172;8.256;2024-03-17T18:21:15;14.53;;;8.97;;
16063;SDS011;8136;53.172;8.256;2024-03-17T18:23:43;9.30;;;6.30;;
16063;SDS011;8136;53.172;8.256;2024-03-17T18:26:10;6.07;;;3.37;;
16063;SDS011;8136;53.172;8.256;2024-03-17T18:28:40;6.10;;;2.80;;
16063;SDS011;8136;53.172;8.256;2024-03-17T18:31:08;4.80;;;2.40;;
16063;SDS011;8136;53.172;8.256;2024-03-17T18:33:37;6.13;;;2.50;;
16063;SDS011;8136;53.172;8.256;2024-03-17T18:36:05;7.03;;;2.90;;
16063;SDS011;8136;53.172;8.256;2024-03-17T18:38:33;3.60;;;3.30;;
16063;SDS011;8136;53.172;8.256;2024-03-17T18:41:02;5.03;;;3.43;;
16063;SDS011;8136;53.172;8.256;2024-03-17T18:43:30;5.40;;;2.63;;
16063;SDS011;8136;53.172;8.256;2024-03-17T18:45:59;3.33;;;2.37;;
16063;SDS011;8136;53.172;8.256;2024-03-17T18:48:33;3.50;;;2.37;;
16063;SDS011;8136;53.172;8.256;2024-03-17T18:51:00;3.43;;;2.83;;
16063;SDS011;8136;53.172;8.256;2024-03-17T18:53:27;5.47;;;3.97;;
16063;SDS011;8136;53.172;8.256;2024-03-17T18:55:58;4.33;;;2.20;;
16063;SDS011;8136;53.172;8.256;2024-03-17T18:58:25;5.17;;;2.40;;
16063;SDS011;8136;53.172;8.256;2024-03-17T19:00:54;4.23;;;3.00;;
16063;SDS011;8136;53.172;8.256;2024-03-17T19:03:23;8.43;;;3.00;;
16063;SDS011;8136;53.172;8.256;2024-03-17T19:05:53;3.97;;;2.10;;
16063;SDS011;8136;53.172;8.256;2024-03-17T19:08:21;4.53;;;2.87;;
16063;SDS011;8136;53.172;8.256;2024-03-17T19:10:50;8.03;;;4.10;;
16063;SDS011;8136;53.172;8.256;2024-03-17T19:13:18;3.83;;;3.07;;
16063;SDS011;8136;53.172;8.256;2024-03-17T19:15:46;7.27;;;3.30;;
16063;SDS011;8136;53.172;8.256;2024-03-17T19:18:23;5.20;;;2.63;;
16063;SDS011;8136;53.172;8.256;2024-03-17T19:20:56;3.00;;;2.00;;
16063;SDS011;8136;53.172;8.256;2024-03-17T19:23:27;4.90;;;2.57;;
16063;SDS011;8136;53.172;8.256;2024-03-17T19:25:58;2.87;;;1.83;;
16063;SDS011;8136;53.172;8.256;2024-03-17T19:28:26;4.80;;;1.83;;
16063;SDS011;8136;53.172;8.256;2024-03-17T19:30:53;3.13;;;1.70;;
16063;SDS011;8136;53.172;8.256;2024-03-17T19:33:21;5.93;;;2.23;;
16063;SDS011;8136;53.172;8.256;2024-03-17T19:35:50;5.23;;;3.47;;
16063;SDS011;8136;53.172;8.256;2024-03-17T19:38:18;14.00;;;8.47;;
16063;SDS011;8136;53.172;8.256;2024-03-17T19:40:50;5.10;;;3.17;;
16063;SDS011;8136;53.172;8.256;2024-03-17T19:43:18;8.57;;;2.17;;
16063;SDS011;8136;53.172;8.256;2024-03-17T19:45:45;6.97;;;2.60;;
16063;SDS011;8136;53.172;8.256;2024-03-17T19:48:12;3.17;;;2.13;;
16063;SDS011;8136;53.172;8.256;2024-03-17T19:50:40;5.07;;;2.67;;
16063;SDS011;8136;53.172;8.256;2024-03-17T19:53:07;5.83;;;2.20;;
16063;SDS011;8136;53.172;8.256;2024-03-17T19:55:34;7.77;;;3.40;;
16063;SDS011;8136;53.172;8.256;2024-03-17T19:58:01;8.27;;;2.53;;
16063;SDS011;8136;53.172;8.256;2024-03-17T20:00:28;4.17;;;2.10;;
16063;SDS011;8136;53.172;8.256;2024-03-17T20:02:56;2.97;;;2.10;;
16063;SDS011;8136;53.172;8.256;2024-03-17T20:05:23;4.97;;;2.13;;
16063;SDS011;8136;53.172;8.256;2024-03-17T20:07:51;4.70;;;2.40;;
16063;SDS011;8136;53.172;8.256;2024-03-17T20:10:18;5.00;;;2.77;;
16063;SDS011;8136;53.172;8.256;2024-03-17T20:12:45;2.80;;;1.80;;
16063;SDS011;8136;53.172;8.256;2024-03-17T20:15:12;7.33;;;2.73;;
16063;SDS011;8136;53.172;8.256;2024-03-17T20:17:38;4.97;;;2.17;;
16063;SDS011;8136;53.172;8.256;2024-03-17T20:20:06;7.83;;;2.30;;
16063;SDS011;8136;53.172;8.256;2024-03-17T20:22:34;3.10;;;2.13;;
16063;SDS011;8136;53.172;8.256;2024-03-17T20:25:02;5.13;;;2.63;;
16063;SDS011;8136;53.172;8.256;2024-03-17T20:27:32;7.10;;;2.50;;
16063;SDS011;8136;53.172;8.256;2024-03-17T20:29:59;6.33;;;2.33;;
16063;SDS011;8136;53.172;8.256;2024-03-17T20:32:26;3.23;;;2.23;;
16063;SDS011;8136;53.172;8.256;2024-03-17T20:34:53;3.00;;;1.73;;
16063;SDS011;8136;53.172;8.256;2024-03-17T20:37:20;4.30;;;2.17;;
16063;SDS011;8136;53.172;8.256;2024-03-17T20:39:49;5.63;;;2.23;;
16063;SDS011;8136;53.172;8.256;2024-03-17T20:42:18;5.17;;;2.00;;
16063;SDS011;8136;53.172;8.256;2024-03-17T20:44:45;4.23;;;2.30;;
16063;SDS011;8136;53.172;8.256;2024-03-17T20:47:12;5.53;;;2.27;;
16063;SDS011;8136;53.172;8.256;2024-03-17T20:49:40;5.87;;;2.43;;
16063;SDS011;8136;53.172;8.256;2024-03-17T20:52:10;4.70;;;1.77;;
16063;SDS011;8136;53.172;8.256;2024-03-17T20:54:40;6.30;;;2.37;;
16063;SDS011;8136;53.172;8.256;2024-03-17T20:57:06;3.00;;;1.73;;
16063;SDS011;8136;53.172;8.256;2024-03-17T20:59:35;4.10;;;2.10;;
16063;SDS011;8136;53.172;8.256;2024-03-17T21:02:02;6.07;;;2.13;;
16063;SDS011;8136;53.172;8.256;2024-03-17T21:04:30;3.30;;;2.03;;
16063;SDS011;8136;53.172;8.256;2024-03-17T21:06:57;2.87;;;1.67;;
16063;SDS011;8136;53.172;8.256;2024-03-17T21:09:27;3.67;;;1.53;;
16063;SDS011;8136;53.172;8.256;2024-03-17T21:11:54;4.13;;;2.40;;
16063;SDS011;8136;53.172;8.256;2024-03-17T21:14:21;6.13;;;2.30;;
16063;SDS011;8136;53.172;8.256;2024-03-17T21:16:50;3.00;;;1.90;;
16063;SDS011;8136;53.172;8.256;2024-03-17T21:19:17;5.53;;;1.87;;
16063;SDS011;8136;53.172;8.256;2024-03-17T21:21:45;4.17;;;2.07;;
16063;SDS011;8136;53.172;8.256;2024-03-17T21:24:13;5.47;;;1.67;;
16063;SDS011;8136;53.172;8.256;2024-03-17T21:26:40;4.77;;;1.70;;
16063;SDS011;8136;53.172;8.256;2024-03-17T21:29:07;4.00;;;2.03;;
16063;SDS011;8136;53.172;8.256;2024-03-17T21:31:34;4.47;;;1.80;;
16063;SDS011;8136;53.172;8.256;2024-03-17T21:34:03;8.33;;;2.03;;
16063;SDS011;8136;53.172;8.256;2024-03-17T21:36:30;3.53;;;1.87;;
16063;SDS011;8136;53.172;8.256;2024-03-17T21:38:57;6.00;;;2.00;;
16063;SDS011;8136;53.172;8.256;2024-03-17T21:41:25;3.13;;;1.63;;
16063;SDS011;8136;53.172;8.256;2024-03-17T21:43:52;3.83;;;1.97;;
16063;SDS011;8136;53.172;8.256;2024-03-17T21:46:18;3.13;;;1.97;;
16063;SDS011;8136;53.172;8.256;2024-03-17T21:48:46;5.67;;;2.00;;
16063;SDS011;8136;53.172;8.256;2024-03-17T21:51:15;4.50;;;1.83;;
16063;SDS011;8136;53.172;8.256;2024-03-17T21:53:43;2.90;;;1.80;;
16063;SDS011;8136;53.172;8.256;2024-03-17T21:56:12;6.20;;;1.43;;
16063;SDS011;8136;53.172;8.256;2024-03-17T21:58:39;5.27;;;1.83;;
16063;SDS011;8136;53.172;8.256;2024-03-17T22:01:06;5.50;;;1.40;;
16063;SDS011;8136;53.172;8.256;2024-03-17T22:03:33;3.73;;;1.60;;
16063;SDS011;8136;53.172;8.256;2024-03-17T22:06:01;6.57;;;1.83;;
16063;SDS011;8136;53.172;8.256;2024-03-17T22:08:31;3.43;;;1.37;;
16063;SDS011;8136;53.172;8.256;2024-03-17T22:10:58;3.67;;;1.40;;
16063;SDS011;8136;53.172;8.256;2024-03-17T22:13:25;3.57;;;1.23;;
16063;SDS011;8136;53.172;8.256;2024-03-17T22:15:53;3.23;;;1.63;;
16063;SDS011;8136;53.172;8.256;2024-03-17T22:18:21;6.37;;;1.60;;
16063;SDS011;8136;53.172;8.256;2024-03-17T22:20:53;6.07;;;2.00;;
16063;SDS011;8136;53.172;8.256;2024-03-17T22:23:20;5.97;;;1.60;;
16063;SDS011;8136;53.172;8.256;2024-03-17T22:25:54;6.40;;;1.80;;
16063;SDS011;8136;53.172;8.256;2024-03-17T22:28:23;3.97;;;1.57;;
16063;SDS011;8136;53.172;8.256;2024-03-17T22:30:50;4.50;;;1.40;;
16063;SDS011;8136;53.172;8.256;2024-03-17T22:33:18;6.20;;;1.67;;
16063;SDS011;8136;53.172;8.256;2024-03-17T22:35:53;6.63;;;1.57;;
16063;SDS011;8136;53.172;8.256;2024-03-17T22:38:21;3.40;;;1.30;;
16063;SDS011;8136;53.172;8.256;2024-03-17T22:40:51;3.90;;;1.40;;
16063;SDS011;8136;53.172;8.256;2024-03-17T22:43:21;4.10;;;1.03;;
16063;SDS011;8136;53.172;8.256;2024-03-17T22:45:48;5.87;;;1.60;;
16063;SDS011;8136;53.172;8.256;2024-03-17T22:48:17;7.00;;;1.67;;
16063;SDS011;8136;53.172;8.256;2024-03-17T22:50:44;4.50;;;1.20;;
16063;SDS011;8136;53.172;8.256;2024-03-17T22:53:12;4.50;;;1.60;;
16063;SDS011;8136;53.172;8.256;2024-03-17T22:55:40;5.67;;;1.77;;
16063;SDS011;8136;53.172;8.256;2024-03-17T22:58:09;3.50;;;1.10;;
16063;SDS011;8136;53.172;8.256;2024-03-17T23:00:38;4.77;;;1.80;;
16063;SDS011;8136;53.172;8.256;2024-03-17T23:03:08;5.63;;;1.93;;
16063;SDS011;8136;53.172;8.256;2024-03-17T23:05:35;4.43;;;1.67;;
16063;SDS011;8136;53.172;8.256;2024-03-17T23:08:02;3.83;;;1.60;;
16063;SDS011;8136;53.172;8.256;2024-03-17T23:10:30;5.00;;;1.80;;
16063;SDS011;8136;53.172;8.256;2024-03-17T23:12:57;1.83;;;1.50;;
16063;SDS011;8136;53.172;8.256;2024-03-17T23:15:26;6.60;;;1.40;;
16063;SDS011;8136;53.172;8.256;2024-03-17T23:17:57;4.33;;;1.63;;
16063;SDS011;8136;53.172;8.256;2024-03-17T23:20:24;2.57;;;1.57;;
16063;SDS011;8136;53.172;8.256;2024-03-17T23:22:51;3.67;;;1.47;;
16063;SDS011;8136;53.172;8.256;2024-03-17T23:25:17;4.97;;;1.30;;
16063;SDS011;8136;53.172;8.256;2024-03-17T23:27:44;4.10;;;1.40;;
16063;SDS011;8136;53.172;8.256;2024-03-17T23:30:13;3.93;;;1.43;;
16063;SDS011;8136;53.172;8.256;2024-03-17T23:32:45;4.83;;;1.57;;
16063;SDS011;8136;53.172;8.256;2024-03-17T23:35:12;3.30;;;1.37;;
16063;SDS011;8136;53.172;8.256;2024-03-17T23:37:39;4.73;;;1.67;;
16063;SDS011;8136;53.172;8.256;2024-03-17T23:40:06;4.57;;;1.80;;
16063;SDS011;8136;53.172;8.256;2024-03-17T23:42:35;4.57;;;1.40;;
16063;SDS011;8136;53.172;8.256;2024-03-17T23:45:02;2.97;;;1.60;;
16063;SDS011;8136;53.172;8.256;2024-03-17T23:47:30;2.80;;;1.43;;
16063;SDS011;8136;53.172;8.256;2024-03-17T23:49:58;3.97;;;1.80;;
16063;SDS011;8136;53.172;8.256;2024-03-17T23:52:27;4.33;;;1.60;;
16063;SDS011;8136;53.172;8.256;2024-03-17T23:54:54;5.40;;;1.40;;
16063;SDS011;8136;53.172;8.256;2024-03-17T23:57:21;2.23;;;1.50;;
16063;SDS011;8136;53.172;8.256;2024-03-17T23:59:48;5.47;;;1.60;;
